Latest Coastal Weather Observations for Flinders Island Airport

IDT60701

Issued at 3:21 pm EST Tuesday 30 June 2015 (issued every 10 minutes, with the page automatically refreshed every 10 minutes)

About coastal observations | Map of coastal stations | Coastal observations for TAS | Marine services | Other Formats
Station Details ID: 099005 Name: FLINDERS ISLAND AIRPORT Lat: -40.09 Lon: 148.00 Height: 9.0 m
Data from the previous 72 hours. | See also: Recent months at Flinders Island Airport
Date/Time
EST
Temp

°C
Wind Pressure Rain
since 9am
mm
Weather Cloud Vis
km
Sea
Height
m
Swell
Dir
 
Speed
knots
Gust
knots
hPa Trend Height
m
Period
s
Dir
30/03:00pm 12.5 WSW 11 15 1024.8 - 0.0 - Mostly clear 10 - - - -
30/02:31pm 12.7 WSW 12 15 1024.8 - 0.0 - Partly cloudy 10 - - - -
30/02:30pm 12.8 WSW 12 15 1024.8 - 0.0 - Partly cloudy 10 - - - -
30/02:08pm 13.1 SW 12 14 1024.9 - 0.0 - Partly cloudy 10 - - - -
30/02:00pm 12.8 WSW 13 16 1024.9 - 0.0 - Partly cloudy 10 - - - -
30/01:30pm 12.5 W 13 15 1025.1 - 0.0 - Partly cloudy 10 - - - -
30/01:00pm 13.0 WSW 12 16 1025.5 - 0.0 - Partly cloudy 10 - - - -
30/12:30pm 12.5 WSW 15 17 1025.9 - 0.0 - Partly cloudy 10 - - - -
30/12:26pm 12.5 WSW 14 17 1025.9 - 0.0 - Partly cloudy 10 - - - -
30/12:01pm 12.5 W 13 16 1026.2 - 0.0 - Partly cloudy 10 - - - -
30/12:00pm 12.5 W 13 16 1026.2 - 0.0 - Cloudy 10 - - - -
30/11:30am 12.8 W 14 16 1026.6 - 0.0 - Cloudy 10 - - - -
30/11:13am 12.4 W 13 17 1026.8 - 0.0 - Cloudy 10 - - - -
30/11:00am 12.3 WSW 13 17 1026.9 - 0.0 - Partly cloudy 10 - - - -
30/10:44am 12.2 W 12 15 1027.1 - 0.0 - Partly cloudy 10 - - - -
30/10:30am 12.2 W 13 15 1027.1 - 0.0 - Cloudy 10 - - - -
30/10:15am 12.2 W 14 17 1027.2 - 0.0 - Cloudy 10 - - - -
30/10:00am 11.9 WSW 14 17 1027.2 - 0.0 - Cloudy 10 - - - -
30/09:30am 11.7 W 10 13 1027.1 - 0.0 - Cloudy 10 - - - -
30/09:00am 11.4 W 14 18 1027.2 - 1.8 Recent precip. Mostly cloudy 10 - - - -
30/08:30am 10.9 W 11 16 1027.0 - 1.8 - Cloudy 10 - - - -
30/08:19am 10.9 WSW 12 16 1027.0 - 1.6 - Partly cloudy 10 - - - -
30/08:05am 10.6 W 13 19 1026.8 - 1.6 - Partly cloudy 4 - - - -
30/08:00am 10.8 W 15 19 1026.9 - 1.6 - Partly cloudy 4 - - - -
30/07:57am 10.8 W 15 19 1026.9 - 1.6 - Partly cloudy 5 - - - -
30/07:30am 10.4 W 10 13 1026.8 - 1.6 - Partly cloudy 10 - - - -
30/07:00am 10.5 W 8 10 1026.9 - 1.6 - Partly cloudy 10 - - - -
30/06:56am 10.4 W 9 14 1026.9 - 1.6 - Partly cloudy 10 - - - -
30/06:42am 10.5 W 12 17 1026.8 - 1.6 - Partly cloudy 5 - - - -
30/06:41am 10.5 W 12 17 1026.8 - 1.6 - Partly cloudy 6 - - - -
30/06:30am 10.6 W 12 16 1026.8 - 1.6 - Partly cloudy 4 - - - -
30/06:00am 10.7 WSW 12 15 1026.6 - 1.6 Rain Cloudy 4 - - - -
30/05:30am 10.7 W 15 20 1026.5 - 1.2 - Partly cloudy 2 - - - -
30/05:26am 10.8 W 15 20 1026.5 - 1.2 - Partly cloudy 4 - - - -
30/05:00am 11.2 WSW 13 15 1026.3 - 1.2 - Partly cloudy 10 - - - -
30/04:30am 11.4 W 9 15 1026.3 - 1.2 - Cloudy 10 - - - -
30/04:00am 11.5 W 10 12 1026.4 - 1.2 - Cloudy 10 - - - -
30/03:40am 11.0 W 12 16 1026.7 - 1.2 - Partly cloudy 10 - - - -
30/03:30am 10.8 W 14 18 1026.7 - 1.2 - Partly cloudy 5 - - - -
30/03:02am 11.1 W 15 20 1026.9 - 1.0 - Partly cloudy 5 - - - -
30/03:00am 11.1 W 15 20 1027.0 - 1.0 - Cloudy 7 - - - -
30/02:30am 11.5 W 12 15 1027.0 - 1.0 - Cloudy 10 - - - -
30/02:05am 11.1 W 12 17 1027.1 - 1.0 - Partly cloudy 10 - - - -
30/02:00am 11.1 W 10 16 1027.1 - 1.0 - Partly cloudy 10 - - - -
30/01:42am 11.2 W 13 17 1027.4 - 1.0 - Partly cloudy 5 - - - -
30/01:30am 11.4 W 15 19 1027.2 - 1.0 - Cloudy 10 - - - -
30/01:06am 11.0 W 13 18 1027.3 - 1.0 - Partly cloudy 10 - - - -
30/01:00am 11.1 W 12 16 1027.4 - 1.0 - Partly cloudy 10 - - - -
30/12:41am 11.3 W 17 19 1027.5 - 1.0 - Partly cloudy 5 - - - -
30/12:30am 11.5 WSW 16 19 1027.3 - 1.0 - Partly cloudy 10 - - - -
30/12:00am 11.5 W 14 18 1027.4 - 1.0 - Cloudy 10 - - - -
 
Date/Time
EST
Temp

°C
Wind Pressure Rain
since 9am
mm
Weather Cloud Vis
km
Sea
Height
m
Swell
Dir
 
Speed
knots
Gust
knots
hPa Trend Height
m
Period
s
Dir
29/11:30pm 11.6 W 12 19 1027.7 - 1.0 - Cloudy 10 - - - -
29/11:00pm 11.6 W 14 19 1027.7 - 1.0 - Cloudy 10 - - - -
29/10:30pm 11.3 W 15 19 1027.7 - 1.0 - Partly cloudy 10 - - - -
29/10:00pm 11.2 W 18 21 1027.7 - 1.0 - Partly cloudy 10 - - - -
29/09:30pm 11.5 W 17 24 1028.0 - 1.0 - Partly cloudy 10 - - - -
29/09:00pm 11.5 W 20 25 1027.6 - 1.0 Recent precip. Mostly cloudy 9 - - - -
29/08:30pm 11.5 W 16 18 1028.4 - 0.8 - Cloudy 10 - - - -
29/08:00pm 11.3 W 13 16 1028.8 - 0.8 - Partly cloudy 10 - - - -
29/07:52pm 11.5 W 12 16 1028.9 - 0.8 - Partly cloudy 9 - - - -
29/07:30pm 11.4 WNW 11 15 1029.0 - 0.8 - Partly cloudy 10 - - - -
29/07:15pm 11.4 W 12 15 1029.0 - 0.8 - Partly cloudy 5 - - - -
29/07:00pm 11.5 W 12 17 1029.0 - 0.8 - Partly cloudy 10 - - - -
29/06:30pm 11.4 WNW 13 17 1028.8 - 0.8 - Partly cloudy 9 - - - -
29/06:00pm 11.6 WNW 13 17 1028.8 - 0.8 - Mostly cloudy 10 - - - -
29/05:30pm 11.6 W 12 16 1028.8 - 0.8 - Partly cloudy 10 - - - -
29/05:18pm 11.4 W 13 17 1028.8 - 0.8 - Partly cloudy 10 - - - -
29/05:07pm 11.5 W 13 19 1028.7 - 0.8 - Partly cloudy 5 - - - -
29/05:06pm 11.5 W 14 19 1028.7 - 0.8 - Partly cloudy 6 - - - -
29/05:03pm 11.5 W 13 19 1028.7 - 0.8 - Partly cloudy 6 - - - -
29/05:00pm 11.5 W 12 16 1028.7 - 0.8 - Partly cloudy 7 - - - -
29/04:30pm 11.8 W 15 19 1028.8 - 0.8 - Cloudy 5 - - - -
29/04:00pm 11.8 W 14 19 1028.8 - 0.8 - Partly cloudy 10 - - - -
29/03:30pm 11.9 W 12 18 1028.8 - 0.8 - Partly cloudy - - - - -
29/03:00pm 12.1 W 14 17 1028.8 - 0.8 - Cloudy - - - - -
29/02:30pm 12.0 WNW 14 19 1028.9 - 0.8 - Partly cloudy 4 - - - -
29/02:27pm 12.1 WNW 14 18 1028.9 - 0.8 - Partly cloudy 5 - - - -
29/02:00pm 12.3 W 15 18 1029.1 - 0.8 - Partly cloudy - - - - -
29/01:30pm 12.2 W 14 17 1029.3 - 0.8 - Partly cloudy - - - - -
29/01:00pm 12.4 W 14 18 1029.5 - 0.6 - Partly cloudy - - - - -
29/12:30pm 12.2 W 14 17 1029.8 - 0.6 - Partly cloudy - - - - -
29/12:00pm 12.4 W 13 16 1030.0 - 0.4 Recent precip. Cloudy - - - - -
29/11:30am 12.0 W 14 19 1030.3 - 0.2 - Partly cloudy 10 - - - -
29/11:11am 12.1 W 13 18 1030.6 - 0.2 - Partly cloudy 5 - - - -
29/11:00am 12.2 W 14 17 1030.6 - 0.2 - Partly cloudy - - - - -
29/10:30am 11.9 W 14 18 1031.0 - 0.2 - Partly cloudy 2 - - - -
29/10:25am 12.0 W 14 17 1031.0 - 0.2 - Partly cloudy 2 - - - -
29/10:00am 12.1 W 13 17 1031.1 - 0.0 - Partly cloudy - - - - -
29/09:40am 11.9 W 14 17 1030.9 - 0.0 - Partly cloudy 5 - - - -
29/09:30am 12.1 W 15 18 1030.9 - 0.0 - Partly cloudy 10 - - - -
29/09:00am 11.9 W 14 19 1030.9 - 0.0 - Cloudy - - - - -
29/08:41am 11.8 W 12 16 1030.6 - 0.0 - Partly cloudy 5 - - - -
29/08:30am 11.8 W 15 19 1030.6 - 0.0 - Partly cloudy 10 - - - -
29/08:00am 11.9 W 15 18 1030.4 - 0.0 - Partly cloudy 10 - - - -
29/07:30am 11.8 W 13 17 1030.2 - 0.0 - Partly cloudy 10 - - - -
29/07:00am 11.7 W 13 18 1030.1 - 0.0 - Partly cloudy - - - - -
29/06:30am 11.7 W 15 20 1029.8 - 0.0 - Partly cloudy 10 - - - -
29/06:04am 11.8 W 15 20 1029.8 - 0.0 - Partly cloudy 10 - - - -
29/06:00am 11.7 W 14 18 1029.8 - 0.0 - Cloudy 10 - - - -
29/05:50am 11.8 W 17 21 1029.7 - 0.0 - Partly cloudy 5 - - - -
29/05:30am 11.8 W 15 20 1029.5 - 0.0 - Partly cloudy 10 - - - -
29/05:00am 11.8 W 17 23 1029.3 - 0.0 - Partly cloudy 10 - - - -
29/04:30am 11.5 W 17 22 1029.3 - 0.0 - Partly cloudy - - - - -
29/04:00am 11.8 W 18 23 1029.3 - 0.0 - Partly cloudy 10 - - - -
29/03:30am 12.2 W 18 23 1029.2 - 0.0 - Cloudy 10 - - - -
29/03:00am 12.1 W 16 24 1029.4 - 0.0 - Cloudy 10 - - - -
29/02:30am 12.2 W 16 21 1029.4 - 0.0 - Partly cloudy 10 - - - -
29/02:00am 11.9 W 20 25 1029.4 - 0.0 - Partly cloudy - - - - -
29/01:30am 12.0 WSW 18 22 1029.3 - 0.0 - Partly cloudy - - - - -
29/01:00am 11.8 WSW 19 25 1029.5 - 0.0 - Partly cloudy 10 - - - -
29/12:30am 12.2 W 19 24 1029.4 - 0.0 - Partly cloudy 10 - - - -
29/12:00am 11.8 W 20 25 1029.6 - 0.0 - Mostly cloudy - - - - -
 
Date/Time
EST
Temp

°C
Wind Pressure Rain
since 9am
mm
Weather Cloud Vis
km
Sea
Height
m
Swell
Dir
 
Speed
knots
Gust
knots
hPa Trend Height
m
Period
s
Dir
28/11:39pm 11.8 W 23 29 1029.5 - 0.0 - Partly cloudy - - - - -
28/11:30pm 11.8 W 23 28 1029.6 - 0.0 - Partly cloudy - - - - -
28/11:16pm 11.9 W 22 28 1029.5 - 0.0 - Partly cloudy - - - - -
28/11:00pm 11.7 W 21 29 1029.6 - 0.0 - Partly cloudy - - - - -
28/10:30pm 11.6 W 19 23 1030.0 - 0.0 - Partly cloudy - - - - -
28/10:00pm 11.7 W 17 21 1030.3 - 0.0 - Partly cloudy - - - - -
28/09:32pm 11.9 W 17 23 1030.3 - 0.0 - Partly cloudy 5 - - - -
28/09:30pm 12.0 W 17 23 1030.3 - 0.0 - Partly cloudy 8 - - - -
28/09:00pm 12.2 W 15 19 1030.3 - 0.0 - Cloudy 10 - - - -
28/08:30pm 12.0 W 16 21 1030.4 - 0.0 - Partly cloudy 10 - - - -
28/08:00pm 12.2 W 16 21 1030.4 - 0.0 - Partly cloudy 10 - - - -
28/07:30pm 12.0 W 16 20 1030.3 - 0.0 - Partly cloudy 10 - - - -
28/07:00pm 12.0 W 17 22 1030.3 - 0.0 - Partly cloudy 10 - - - -
28/06:30pm 12.1 W 18 22 1030.0 - 0.0 - Partly cloudy 10 - - - -
28/06:00pm 12.2 W 16 20 1029.8 - 0.0 - Cloudy 10 - - - -
28/05:30pm 12.4 W 17 22 1029.6 - 0.0 - Partly cloudy 10 - - - -
28/05:00pm 12.2 W 17 22 1029.4 - 0.0 - Partly cloudy 10 - - - -
28/04:30pm 12.3 W 16 22 1029.3 - 0.0 - Partly cloudy 10 - - - -
28/04:00pm 12.3 W 17 22 1029.2 - 0.0 - Partly cloudy 8 - - - -
28/03:30pm 12.2 W 18 22 1029.1 - 0.0 - Partly cloudy 9 - - - -
28/03:00pm 12.5 W 16 21 1028.9 - 0.0 - Cloudy 10 - - - -
28/02:30pm 12.2 W 19 26 1028.8 - 0.0 - Partly cloudy 7 - - - -
28/02:00pm 12.1 W 19 26 1028.9 - 0.0 - Partly cloudy 8 - - - -
28/01:30pm 13.2 W 20 25 1029.0 - 0.0 - Partly cloudy 10 - - - -
28/01:00pm 12.8 WSW 17 21 1029.4 - 0.0 - Partly cloudy 10 - - - -
28/12:52pm 12.6 W 17 20 1029.5 - 0.0 - Partly cloudy 10 - - - -
28/12:39pm 12.2 W 19 26 1029.5 - 0.0 - Partly cloudy 5 - - - -
28/12:30pm 13.1 W 18 22 1029.5 - 0.0 - Partly cloudy 10 - - - -
28/12:00pm 13.5 W 17 23 1029.7 - 0.0 - Cloudy 10 - - - -
28/11:30am 12.7 W 17 22 1029.8 - 0.0 - Partly cloudy 10 - - - -
28/11:01am 12.3 W 16 20 1029.8 - 0.0 - Partly cloudy 10 - - - -
28/11:00am 12.4 W 16 20 1029.9 - 0.0 - Partly cloudy 10 - - - -
28/10:50am 12.4 W 18 22 1029.9 - 0.0 - Partly cloudy 10 - - - -
28/10:30am 12.4 W 15 21 1030.2 - 0.0 - Partly cloudy 10 - - - -
28/10:28am 12.5 W 15 19 1030.2 - 0.0 - Partly cloudy 10 - - - -
28/10:20am 12.7 W 16 19 1030.3 - 0.0 - Partly cloudy 10 - - - -
28/10:10am 12.1 W 19 27 1030.1 - 0.0 - Partly cloudy 10 - - - -
28/10:09am 12.1 W 19 27 1030.1 - 0.0 - Partly cloudy 10 - - - -
28/10:00am 12.7 W 19 24 1030.0 - 0.0 - Partly cloudy 10 - - - -
28/09:30am 12.5 WSW 19 22 1029.8 - 0.0 - Partly cloudy 10 - - - -
28/09:00am 12.3 W 18 22 1029.7 - 2.4 - Cloudy 10 - - - -
28/08:30am 12.1 W 18 22 1029.4 - 2.4 - Partly cloudy 10 - - - -
28/08:29am 12.1 W 18 22 1029.4 - 2.4 - Partly cloudy 10 - - - -
28/08:09am 11.8 W 19 25 1029.2 - 2.4 - Partly cloudy 10 - - - -
28/08:00am 11.8 W 21 27 1028.9 - 2.4 - Partly cloudy 10 - - - -
28/07:30am 11.9 W 20 24 1028.8 - 2.2 - Partly cloudy 10 - - - -
28/07:00am 11.9 W 23 27 1028.7 - 2.2 - Partly cloudy 10 - - - -
28/06:30am 11.9 W 19 26 1028.3 - 2.2 - Partly cloudy 10 - - - -
28/06:26am 12.0 W 18 23 1028.2 - 2.2 - Partly cloudy 10 - - - -
28/06:00am 11.9 W 24 28 1028.2 - 2.2 - Mostly clear 10 - - - -
28/05:30am 12.0 W 23 27 1027.9 - 2.2 - Partly cloudy 10 - - - -
28/05:00am 12.0 W 21 26 1027.7 - 2.2 - Cloudy 10 - - - -
28/04:30am 11.8 W 21 29 1027.6 - 2.2 - Partly cloudy 10 - - - -
28/04:00am 11.7 W 21 27 1027.6 - 2.2 - Partly cloudy 10 - - - -
28/03:30am 12.0 W 22 29 1027.4 - 2.2 - Cloudy 10 - - - -
28/03:24am 12.2 W 19 29 1027.4 - 2.2 - Cloudy 10 - - - -
28/03:00am 12.1 WSW 21 27 1027.6 - 2.2 - Cloudy 10 - - - -
28/02:30am 12.0 W 25 30 1027.6 - 2.2 - Cloudy 10 - - - -
28/02:00am 12.1 W 23 30 1027.4 - 2.2 - Partly cloudy 10 - - - -
28/01:30am 12.1 W 21 26 1027.2 - 2.2 - Partly cloudy 10 - - - -
28/01:00am 12.0 W 20 27 1027.0 - 2.2 - Partly cloudy 10 - - - -
28/12:30am 12.1 W 22 26 1027.0 - 2.2 - Partly cloudy 10 - - - -
28/12:00am 12.2 W 20 24 1027.0 - 2.2 - - 10 - - - -
 
Date/Time
EST
Temp

°C
Wind Pressure Rain
since 9am
mm
Weather Cloud Vis
km
Sea
Height
m
Swell
Dir
 
Speed
knots
Gust
knots
hPa Trend Height
m
Period
s
Dir
27/11:30pm 12.2 W 20 25 1026.8 - 2.2 - - 10 - - - -
27/11:00pm 12.4 W 21 27 1026.9 - 2.2 - Partly cloudy 10 - - - -
27/10:30pm 12.4 W 21 28 1027.1 - 2.2 - Partly cloudy 10 - - - -
27/10:00pm 12.5 W 23 28 1027.0 - 2.2 - Partly cloudy 10 - - - -
27/09:30pm 12.6 W 22 29 1027.0 - 2.2 - Partly cloudy 10 - - - -
27/09:11pm 12.9 W 21 26 1026.9 - 2.2 - Partly cloudy 10 - - - -
27/09:00pm 12.9 W 21 29 1026.9 - 2.2 - Cloudy 10 - - - -
27/08:50pm 12.9 W 21 27 1026.9 - 2.2 - Partly cloudy 10 - - - -
27/08:30pm 12.8 W 20 27 1026.9 - 2.2 - Partly cloudy 10 - - - -
27/08:11pm 12.7 W 19 29 1026.9 - 2.2 - Partly cloudy 10 - - - -
27/08:09pm 12.7 W 19 29 1027.0 - 2.2 - Partly cloudy 10 - - - -
27/08:00pm 12.6 W 19 26 1026.9 - 2.2 - Partly cloudy 10 - - - -
27/07:30pm 12.5 WSW 21 27 1026.7 - 2.2 - Partly cloudy - - - - -
27/07:22pm 12.6 W 20 26 1026.6 - 2.2 - Partly cloudy - - - - -
27/07:00pm 12.7 WNW 20 26 1026.4 - 2.0 - Partly cloudy - - - - -
27/06:30pm 12.5 WNW 20 26 1026.3 - 2.0 - Partly cloudy - - - - -
27/06:18pm 12.5 WNW 21 27 1026.3 - 2.0 - Partly cloudy 5 - - - -
27/06:00pm 12.7 WNW 22 29 1026.1 - 2.0 - Cloudy 10 - - - -
27/05:30pm 12.3 WNW 22 28 1026.1 - 2.0 - Partly cloudy - - - - -
27/05:00pm 12.4 W 23 31 1026.1 - 2.0 - Partly cloudy - - - - -
27/04:30pm 12.3 WNW 20 27 1026.0 - 1.8 - Partly cloudy - - - - -
27/04:00pm 12.2 WNW 21 28 1025.9 - 1.8 - Partly cloudy - - - - -
27/03:30pm 12.3 W 18 23 1025.9 - 1.8 - Partly cloudy - - - - -

Other Formats:

Comma delimited format used in spreadsheet applications
http://www.bom.gov.au/fwo/IDT60701/IDT60701.94980.axf

JavaScript Object Notation format (JSON) in row-major order
http://www.bom.gov.au/fwo/IDT60701/IDT60701.94980.json